createdAt,value
2023-02-09T00:01:22.476Z,14.00
2023-02-09T00:03:43.751Z,13.70
2023-02-09T00:06:06.259Z,14.10
2023-02-09T00:08:27.283Z,13.90
2023-02-09T00:10:48.653Z,15.70
2023-02-09T00:13:24.705Z,14.20
2023-02-09T00:15:50.556Z,14.23
2023-02-09T00:18:11.912Z,14.00
2023-02-09T00:20:33.742Z,14.00
2023-02-09T00:22:54.682Z,13.70
2023-02-09T00:25:15.833Z,15.17
2023-02-09T00:27:37.041Z,14.57
2023-02-09T00:29:58.255Z,13.60
2023-02-09T00:32:20.764Z,13.70
2023-02-09T00:34:42.154Z,15.93
2023-02-09T00:37:03.811Z,14.37
2023-02-09T00:39:24.957Z,15.60
2023-02-09T00:42:03.960Z,14.53
2023-02-09T00:44:25.172Z,14.97
2023-02-09T00:46:46.425Z,15.73
2023-02-09T00:49:09.243Z,15.70
2023-02-09T00:51:30.430Z,15.83
2023-02-09T00:53:51.444Z,14.90
2023-02-09T00:56:12.650Z,17.30
2023-02-09T00:58:33.804Z,16.50
2023-02-09T01:00:55.182Z,15.77
2023-02-09T01:03:16.361Z,16.10
2023-02-09T01:05:41.129Z,16.50
2023-02-09T01:08:02.532Z,16.67
2023-02-09T01:10:24.111Z,16.60
2023-02-09T01:12:45.483Z,17.10
2023-02-09T01:15:06.949Z,16.33
2023-02-09T01:17:28.219Z,16.90
2023-02-09T01:19:52.198Z,15.80
2023-02-09T01:22:16.356Z,16.33
2023-02-09T01:24:37.508Z,14.70
2023-02-09T01:26:58.552Z,15.30
2023-02-09T01:29:20.404Z,16.27
2023-02-09T01:31:41.790Z,15.50
2023-02-09T01:34:03.480Z,15.67
2023-02-09T01:36:24.616Z,14.50
2023-02-09T01:38:47.309Z,16.43
2023-02-09T01:41:08.328Z,14.57
2023-02-09T01:43:29.831Z,15.03
2023-02-09T01:45:51.353Z,14.67
2023-02-09T01:48:14.169Z,15.00
2023-02-09T01:50:40.070Z,14.20
2023-02-09T01:53:01.543Z,15.70
2023-02-09T01:55:25.230Z,15.93
2023-02-09T01:57:48.941Z,15.93
2023-02-09T02:00:11.906Z,16.00
2023-02-09T02:02:33.416Z,16.40
2023-02-09T02:04:54.926Z,15.73
2023-02-09T02:07:17.807Z,16.00
2023-02-09T02:09:39.042Z,15.53
2023-02-09T02:12:01.750Z,15.37
2023-02-09T02:14:28.647Z,15.70
2023-02-09T02:16:58.577Z,14.50
2023-02-09T02:19:33.716Z,15.27
2023-02-09T02:22:09.814Z,15.50
2023-02-09T02:24:40.293Z,15.27
2023-02-09T02:27:03.044Z,16.10
2023-02-09T02:29:39.243Z,16.47
2023-02-09T02:32:21.334Z,15.57
2023-02-09T02:34:46.494Z,15.53
2023-02-09T02:37:15.086Z,16.97
2023-02-09T02:39:39.073Z,15.20
2023-02-09T02:42:19.724Z,15.30
2023-02-09T02:44:42.254Z,14.23
2023-02-09T02:47:06.193Z,15.07
2023-02-09T02:49:30.808Z,15.20
2023-02-09T02:51:54.761Z,14.93
2023-02-09T02:54:17.321Z,15.03
2023-02-09T02:56:40.018Z,16.17
2023-02-09T02:59:03.068Z,16.17
2023-02-09T03:01:26.043Z,17.00
2023-02-09T03:03:48.239Z,13.97
2023-02-09T03:06:10.833Z,14.30
2023-02-09T03:08:46.110Z,14.13
2023-02-09T03:11:07.380Z,15.27
2023-02-09T03:13:39.329Z,13.90
2023-02-09T03:16:07.324Z,14.57
2023-02-09T03:18:32.925Z,15.00
2023-02-09T03:20:56.233Z,15.77
2023-02-09T03:23:24.434Z,14.50
2023-02-09T03:25:49.619Z,14.07
2023-02-09T03:28:13.908Z,14.83
2023-02-09T03:30:36.470Z,13.90
2023-02-09T03:32:57.349Z,14.30
2023-02-09T03:35:20.423Z,14.43
2023-02-09T03:37:41.750Z,14.77
2023-02-09T03:40:03.047Z,15.23
2023-02-09T03:42:25.315Z,15.10
2023-02-09T03:44:46.428Z,15.73
2023-02-09T03:47:09.364Z,16.30
2023-02-09T03:49:33.458Z,15.07
2023-02-09T03:51:54.484Z,15.97
2023-02-09T03:54:16.124Z,14.90
2023-02-09T03:56:38.198Z,14.67
2023-02-09T03:59:00.866Z,15.47
2023-02-09T04:01:22.135Z,15.83
2023-02-09T04:03:43.443Z,16.07
2023-02-09T04:06:04.582Z,16.83
2023-02-09T04:08:26.246Z,15.37
2023-02-09T04:10:47.487Z,16.13
2023-02-09T04:13:08.650Z,16.23
2023-02-09T04:15:31.381Z,15.00
2023-02-09T04:17:52.652Z,15.33
2023-02-09T04:20:13.988Z,16.73
2023-02-09T04:22:35.277Z,14.63
2023-02-09T04:24:56.748Z,16.40
2023-02-09T04:27:18.146Z,16.80
2023-02-09T04:29:39.171Z,17.07
2023-02-09T04:32:01.905Z,17.30
2023-02-09T04:34:24.553Z,16.43
2023-02-09T04:36:45.891Z,17.43
2023-02-09T04:39:07.391Z,14.43
2023-02-09T04:41:28.323Z,15.67
2023-02-09T04:43:49.704Z,14.47
2023-02-09T04:46:13.025Z,14.00
2023-02-09T04:48:35.132Z,15.80
2023-02-09T04:50:56.484Z,13.70
2023-02-09T04:53:18.104Z,16.70
2023-02-09T04:55:39.554Z,17.00
2023-02-09T04:58:18.204Z,17.07
2023-02-09T05:00:39.502Z,17.20
2023-02-09T05:03:00.751Z,17.93
2023-02-09T05:05:23.395Z,17.70
2023-02-09T05:07:44.597Z,17.23
2023-02-09T05:10:06.069Z,17.87
2023-02-09T05:12:27.467Z,18.03
2023-02-09T05:14:48.891Z,17.20
2023-02-09T05:17:10.030Z,17.93
2023-02-09T05:19:31.197Z,18.53
2023-02-09T05:21:53.715Z,18.67
2023-02-09T05:24:15.059Z,18.37
2023-02-09T05:26:36.375Z,19.03
2023-02-09T05:28:57.728Z,17.87
2023-02-09T05:31:19.336Z,16.97
2023-02-09T05:33:40.604Z,16.47
2023-02-09T05:36:08.272Z,15.47
2023-02-09T05:38:30.948Z,15.63
2023-02-09T05:40:52.283Z,16.00
2023-02-09T05:43:13.323Z,17.33
2023-02-09T05:45:34.424Z,15.50
2023-02-09T05:47:55.736Z,16.00
2023-02-09T05:50:17.058Z,17.27
2023-02-09T05:52:38.031Z,17.67
2023-02-09T05:55:00.834Z,17.43
2023-02-09T05:57:22.153Z,17.73
2023-02-09T05:59:43.797Z,16.50
2023-02-09T06:02:05.178Z,16.43
2023-02-09T06:04:26.946Z,18.43
2023-02-09T06:06:48.361Z,17.37
2023-02-09T06:09:09.795Z,18.17
2023-02-09T06:11:32.640Z,17.83
2023-02-09T06:13:53.824Z,18.30
2023-02-09T06:16:14.944Z,18.63
2023-02-09T06:18:36.346Z,19.27
2023-02-09T06:20:57.521Z,19.13
2023-02-09T06:23:18.884Z,17.90
2023-02-09T06:25:40.325Z,17.03
2023-02-09T06:28:03.757Z,16.30
2023-02-09T06:30:24.691Z,16.33
2023-02-09T06:32:46.134Z,18.60
2023-02-09T06:35:07.547Z,17.23
2023-02-09T06:37:28.568Z,16.93
2023-02-09T06:39:50.021Z,17.00
2023-02-09T06:42:11.434Z,16.07
2023-02-09T06:44:34.140Z,15.80
2023-02-09T06:46:56.210Z,15.77
2023-02-09T06:49:17.584Z,15.67
2023-02-09T06:51:38.864Z,15.77
2023-02-09T06:54:00.119Z,16.87
2023-02-09T06:56:21.386Z,17.70
2023-02-09T06:58:42.846Z,18.60
2023-02-09T07:01:05.861Z,16.73
2023-02-09T07:03:26.794Z,16.57
2023-02-09T07:05:48.073Z,14.63
2023-02-09T07:08:09.326Z,14.50
2023-02-09T07:10:30.701Z,15.40
2023-02-09T07:12:52.327Z,16.73
2023-02-09T07:15:14.304Z,18.47
2023-02-09T07:17:36.657Z,17.67
2023-02-09T07:19:58.022Z,16.20
2023-02-09T07:22:19.202Z,16.17
2023-02-09T07:24:40.675Z,15.83
2023-02-09T07:27:02.029Z,16.33
2023-02-09T07:29:23.429Z,16.03
2023-02-09T07:31:44.848Z,16.17
2023-02-09T07:34:07.325Z,15.93
2023-02-09T07:36:28.271Z,16.33
2023-02-09T07:38:49.307Z,14.93
2023-02-09T07:41:14.313Z,16.17
2023-02-09T07:43:35.446Z,17.23
2023-02-09T07:46:00.400Z,17.60
2023-02-09T07:48:22.319Z,17.27
2023-02-09T07:50:50.505Z,17.70
2023-02-09T07:53:11.596Z,18.80
2023-02-09T07:55:32.900Z,18.47
2023-02-09T07:57:54.275Z,18.53
2023-02-09T08:00:16.169Z,19.10
2023-02-09T08:02:38.737Z,19.30
2023-02-09T08:05:01.003Z,19.20
2023-02-09T08:07:23.596Z,19.90
2023-02-09T08:09:46.498Z,18.27
2023-02-09T08:12:08.697Z,18.93
2023-02-09T08:14:31.392Z,17.87
2023-02-09T08:17:14.890Z,18.77
2023-02-09T08:19:35.969Z,17.10
2023-02-09T08:21:57.152Z,19.10
2023-02-09T08:24:21.559Z,18.70
2023-02-09T08:26:42.814Z,17.77
2023-02-09T08:29:04.440Z,18.17
2023-02-09T08:31:25.570Z,19.97
2023-02-09T08:33:47.382Z,19.20
2023-02-09T08:36:08.750Z,18.00
2023-02-09T08:38:29.548Z,19.17
2023-02-09T08:40:52.100Z,19.70
2023-02-09T08:43:15.162Z,19.80
2023-02-09T08:45:36.798Z,20.57
2023-02-09T08:47:57.965Z,20.90
2023-02-09T08:50:19.253Z,22.10
2023-02-09T08:52:40.533Z,22.53
2023-02-09T08:55:01.940Z,25.13
2023-02-09T08:57:38.125Z,23.90
2023-02-09T09:00:04.845Z,23.00
2023-02-09T09:02:25.906Z,23.33
2023-02-09T09:04:47.104Z,25.10
2023-02-09T09:07:08.320Z,24.30
2023-02-09T09:09:29.561Z,23.63
2023-02-09T09:11:50.709Z,24.20
2023-02-09T09:14:13.478Z,24.13
2023-02-09T09:16:34.834Z,25.37
2023-02-09T09:18:56.081Z,22.57
2023-02-09T09:21:17.796Z,23.40
2023-02-09T09:23:39.161Z,24.67
2023-02-09T09:26:01.478Z,24.20
2023-02-09T09:28:22.945Z,23.67
2023-02-09T09:30:45.701Z,25.33
2023-02-09T09:33:07.086Z,26.30
2023-02-09T09:35:28.315Z,24.43
2023-02-09T09:37:49.587Z,24.80
2023-02-09T09:40:13.167Z,25.17
2023-02-09T09:42:35.717Z,23.77
2023-02-09T09:44:56.859Z,26.17
2023-02-09T09:47:20.886Z,26.00
2023-02-09T09:49:42.235Z,26.97
2023-02-09T09:52:06.797Z,26.13
2023-02-09T09:54:30.161Z,25.60
2023-02-09T09:56:51.940Z,25.50
2023-02-09T09:59:17.001Z,25.70
2023-02-09T10:01:38.006Z,24.50
2023-02-09T10:04:02.195Z,25.03
2023-02-09T10:06:23.939Z,26.30
2023-02-09T10:08:48.798Z,26.53
2023-02-09T10:11:11.692Z,26.73
2023-02-09T10:13:35.023Z,25.77
2023-02-09T10:15:56.691Z,26.20
2023-02-09T10:18:18.330Z,25.20
2023-02-09T10:20:45.871Z,26.37
2023-02-09T10:23:06.908Z,26.67
2023-02-09T10:25:37.889Z,26.90
2023-02-09T10:28:06.339Z,26.17
2023-02-09T10:30:29.061Z,25.90
2023-02-09T10:32:51.088Z,24.80
2023-02-09T10:35:23.738Z,27.63
2023-02-09T10:37:46.821Z,25.30
2023-02-09T10:40:09.832Z,26.03
2023-02-09T10:42:32.402Z,26.80
2023-02-09T10:44:54.702Z,25.53
2023-02-09T10:47:27.136Z,26.70
2023-02-09T10:49:53.287Z,25.03
2023-02-09T10:52:19.244Z,24.97
2023-02-09T10:54:43.304Z,26.73
2023-02-09T10:57:20.314Z,25.67
2023-02-09T10:59:42.300Z,26.73
2023-02-09T11:02:03.392Z,27.13
2023-02-09T11:04:25.704Z,27.17
2023-02-09T11:06:50.488Z,26.53
2023-02-09T11:09:14.154Z,26.77
2023-02-09T11:11:37.925Z,27.60
2023-02-09T11:13:59.824Z,26.73
2023-02-09T11:16:26.962Z,26.97
2023-02-09T11:18:53.104Z,26.50
2023-02-09T11:21:15.978Z,25.60
2023-02-09T11:23:42.525Z,26.17
2023-02-09T11:26:06.331Z,27.07
2023-02-09T11:28:33.271Z,26.60
2023-02-09T11:31:06.683Z,26.93
2023-02-09T11:33:32.117Z,26.50
2023-02-09T11:36:01.646Z,26.87
2023-02-09T11:38:27.867Z,26.73
2023-02-09T11:40:50.650Z,26.83
2023-02-09T11:43:15.796Z,26.10
2023-02-09T11:45:41.374Z,26.73
2023-02-09T11:48:05.243Z,26.50
2023-02-09T11:50:28.904Z,26.00
2023-02-09T11:52:52.731Z,26.30
2023-02-09T11:55:20.562Z,24.70
2023-02-09T11:57:43.258Z,24.60
2023-02-09T12:00:06.117Z,24.67
2023-02-09T12:02:38.505Z,23.77
2023-02-09T12:05:00.508Z,25.40
2023-02-09T12:07:26.026Z,25.53
2023-02-09T12:09:50.498Z,24.60
2023-02-09T12:12:16.257Z,26.03
2023-02-09T12:14:46.342Z,24.30
2023-02-09T12:17:12.473Z,24.80
2023-02-09T12:19:36.517Z,24.90
2023-02-09T12:21:57.828Z,23.37
2023-02-09T12:24:31.789Z,24.13
2023-02-09T12:26:55.913Z,23.00
2023-02-09T12:29:25.256Z,23.03
2023-02-09T12:32:06.110Z,22.27
2023-02-09T12:34:31.095Z,22.30
2023-02-09T12:37:16.641Z,22.50
2023-02-09T12:39:39.043Z,21.13
2023-02-09T12:42:19.005Z,21.53
2023-02-09T12:44:54.130Z,21.40
2023-02-09T12:47:33.985Z,21.30
2023-02-09T12:50:03.117Z,21.13
2023-02-09T12:52:24.157Z,21.50
2023-02-09T12:54:48.061Z,21.37
2023-02-09T12:57:48.195Z,20.63
2023-02-09T13:00:27.855Z,17.73
2023-02-09T13:02:50.612Z,19.53
2023-02-09T13:05:13.335Z,18.63
2023-02-09T13:07:43.739Z,19.33
2023-02-09T13:10:14.413Z,18.03
2023-02-09T13:12:37.668Z,19.57
2023-02-09T13:14:58.501Z,17.83
2023-02-09T13:17:27.583Z,18.13
2023-02-09T13:19:53.850Z,19.73
2023-02-09T13:22:22.664Z,18.23
2023-02-09T13:24:47.627Z,18.10
2023-02-09T13:27:19.186Z,20.03
2023-02-09T13:29:48.452Z,18.23
2023-02-09T13:32:17.646Z,20.30
2023-02-09T13:34:42.418Z,17.93
2023-02-09T13:37:13.275Z,17.90
2023-02-09T13:39:36.931Z,17.37
2023-02-09T13:41:58.361Z,17.03
2023-02-09T13:44:25.066Z,17.77
2023-02-09T13:46:51.949Z,19.57
2023-02-09T13:49:16.575Z,19.83
2023-02-09T13:51:37.637Z,18.07
2023-02-09T13:53:59.430Z,17.37
2023-02-09T13:56:20.868Z,17.33
2023-02-09T13:58:42.410Z,15.83
2023-02-09T14:01:05.959Z,16.43
2023-02-09T14:03:28.162Z,16.00
2023-02-09T14:05:52.440Z,16.57
2023-02-09T14:08:14.700Z,16.20
2023-02-09T14:10:36.098Z,17.07
2023-02-09T14:13:00.706Z,16.43
2023-02-09T14:15:40.819Z,16.40
2023-02-09T14:18:03.327Z,16.50
2023-02-09T14:20:25.550Z,15.63
2023-02-09T14:22:55.483Z,16.77
2023-02-09T14:25:19.492Z,16.03
2023-02-09T14:27:41.139Z,16.67
2023-02-09T14:30:02.414Z,16.27
2023-02-09T14:32:32.178Z,17.90
2023-02-09T14:34:55.438Z,16.87
2023-02-09T14:37:29.255Z,17.17
2023-02-09T14:39:54.200Z,16.67
2023-02-09T14:42:17.989Z,17.30
2023-02-09T14:44:45.533Z,15.93
2023-02-09T14:47:06.510Z,17.17
2023-02-09T14:49:28.228Z,19.40
2023-02-09T14:51:52.670Z,18.00
2023-02-09T14:54:17.881Z,18.97
2023-02-09T14:56:39.128Z,17.93
2023-02-09T14:59:00.545Z,18.47
2023-02-09T15:01:22.097Z,20.27
2023-02-09T15:03:43.423Z,33.37
2023-02-09T15:06:05.651Z,19.07
2023-02-09T15:08:29.618Z,19.03
2023-02-09T15:10:53.313Z,19.27
2023-02-09T15:13:15.220Z,18.40
2023-02-09T15:15:37.673Z,19.03
2023-02-09T15:17:59.807Z,19.43
2023-02-09T15:20:24.452Z,18.80
2023-02-09T15:22:46.595Z,18.80
2023-02-09T15:25:09.575Z,20.07
2023-02-09T15:27:34.145Z,19.40
2023-02-09T15:29:58.638Z,19.40
2023-02-09T15:32:21.447Z,19.40
2023-02-09T15:34:42.557Z,19.10
2023-02-09T15:37:03.589Z,20.47
2023-02-09T15:39:25.224Z,19.83
2023-02-09T15:42:10.827Z,19.13
2023-02-09T15:44:49.274Z,19.60
2023-02-09T15:47:28.321Z,22.57
2023-02-09T15:49:49.617Z,20.40
2023-02-09T15:52:10.881Z,23.50
2023-02-09T15:54:33.812Z,24.63
2023-02-09T15:56:56.452Z,24.20
2023-02-09T15:59:18.757Z,21.67
2023-02-09T16:01:40.246Z,23.00
2023-02-09T16:04:12.693Z,22.57
2023-02-09T16:06:35.654Z,20.70
2023-02-09T16:08:59.570Z,21.87
2023-02-09T16:11:21.443Z,22.47
2023-02-09T16:13:44.089Z,21.13
2023-02-09T16:16:16.734Z,20.87
2023-02-09T16:18:38.871Z,21.30
2023-02-09T16:21:00.032Z,21.13
2023-02-09T16:23:22.603Z,19.77
2023-02-09T16:25:43.855Z,19.07
2023-02-09T16:28:05.298Z,18.90
2023-02-09T16:30:29.826Z,19.37
2023-02-09T16:32:51.443Z,19.53
2023-02-09T16:35:17.009Z,19.60
2023-02-09T16:37:38.276Z,20.07
2023-02-09T16:40:00.945Z,21.37
2023-02-09T16:42:22.492Z,23.43
2023-02-09T16:44:44.043Z,24.30
2023-02-09T16:47:10.833Z,26.00
2023-02-09T16:49:34.502Z,31.23
2023-02-09T16:51:56.815Z,27.87
2023-02-09T16:54:18.072Z,21.93
2023-02-09T16:56:52.715Z,19.53
2023-02-09T16:59:15.111Z,20.33
2023-02-09T17:01:36.267Z,19.83
2023-02-09T17:03:58.945Z,20.63
2023-02-09T17:06:21.381Z,22.67
2023-02-09T17:08:42.725Z,22.93
2023-02-09T17:11:04.411Z,22.53
2023-02-09T17:13:25.882Z,23.33
2023-02-09T17:15:48.778Z,24.10
2023-02-09T17:18:10.726Z,22.17
2023-02-09T17:20:36.733Z,23.53
2023-02-09T17:22:57.762Z,23.20
2023-02-09T17:25:19.693Z,20.77
2023-02-09T17:27:41.910Z,23.43
2023-02-09T17:30:04.086Z,21.53
2023-02-09T17:32:25.202Z,21.77
2023-02-09T17:34:46.638Z,23.83
2023-02-09T17:37:11.102Z,22.53
2023-02-09T17:39:32.282Z,23.80
2023-02-09T17:41:53.722Z,22.97
2023-02-09T17:44:39.201Z,23.13
2023-02-09T17:46:56.991Z,22.27
2023-02-09T17:49:18.349Z,23.50
2023-02-09T17:51:41.535Z,22.20
2023-02-09T17:54:04.246Z,22.67
2023-02-09T17:56:25.537Z,23.00
2023-02-09T17:58:46.856Z,21.87
2023-02-09T18:01:15.260Z,21.63
2023-02-09T18:03:36.260Z,20.97
2023-02-09T18:06:01.556Z,22.53
2023-02-09T18:08:22.814Z,22.00
2023-02-09T18:10:45.752Z,22.37
2023-02-09T18:13:07.135Z,23.67
2023-02-09T18:15:29.065Z,24.53
2023-02-09T18:17:50.179Z,24.40
2023-02-09T18:20:15.056Z,22.93
2023-02-09T18:22:36.357Z,23.73
2023-02-09T18:25:00.618Z,24.87
2023-02-09T18:27:25.418Z,26.47
2023-02-09T18:29:46.489Z,26.17
2023-02-09T18:32:07.897Z,25.20
2023-02-09T18:34:29.093Z,25.57
2023-02-09T18:36:50.411Z,25.63
2023-02-09T18:39:11.617Z,26.77
2023-02-09T18:41:33.252Z,24.73
2023-02-09T18:43:56.267Z,25.90
2023-02-09T18:46:19.528Z,25.93
2023-02-09T18:48:40.616Z,25.47
2023-02-09T18:51:01.818Z,25.30
2023-02-09T18:53:23.155Z,24.10
2023-02-09T18:55:44.693Z,24.33
2023-02-09T18:58:09.205Z,24.13
2023-02-09T19:00:31.769Z,26.33
2023-02-09T19:02:54.198Z,25.53
2023-02-09T19:05:16.103Z,26.97
2023-02-09T19:07:36.994Z,27.67
2023-02-09T19:09:58.427Z,28.50
2023-02-09T19:12:19.435Z,28.23
2023-02-09T19:14:42.073Z,27.97
2023-02-09T19:17:05.218Z,28.03
2023-02-09T19:19:26.559Z,24.23
2023-02-09T19:21:51.906Z,25.50
2023-02-09T19:24:13.101Z,25.50
2023-02-09T19:26:34.816Z,24.53
2023-02-09T19:28:57.047Z,26.07
2023-02-09T19:31:18.306Z,25.73
2023-02-09T19:33:41.013Z,27.23
2023-02-09T19:36:02.325Z,27.83
2023-02-09T19:38:24.527Z,26.67
2023-02-09T19:40:45.786Z,28.37
2023-02-09T19:43:06.842Z,26.83
2023-02-09T19:45:30.966Z,25.40
2023-02-09T19:47:52.431Z,24.70
2023-02-09T19:50:16.059Z,23.93
2023-02-09T19:52:38.259Z,24.27
2023-02-09T19:54:59.444Z,25.10
2023-02-09T19:57:21.054Z,25.37
2023-02-09T19:59:42.354Z,25.27
2023-02-09T20:02:03.683Z,25.33
2023-02-09T20:04:25.043Z,26.87
2023-02-09T20:06:47.478Z,25.27
2023-02-09T20:09:08.620Z,26.57
2023-02-09T20:11:30.097Z,27.63
2023-02-09T20:13:52.690Z,29.90
2023-02-09T20:16:15.358Z,28.70
2023-02-09T20:18:36.413Z,27.83
2023-02-09T20:20:58.385Z,28.37
2023-02-09T20:23:20.659Z,25.03
2023-02-09T20:25:42.358Z,25.97
2023-02-09T20:28:04.386Z,24.97
2023-02-09T20:30:25.983Z,24.90
2023-02-09T20:32:46.933Z,25.03
2023-02-09T20:35:08.435Z,26.60
2023-02-09T20:37:29.902Z,25.13
2023-02-09T20:39:52.271Z,26.00
2023-02-09T20:42:31.087Z,26.30
2023-02-09T20:45:09.952Z,25.93
2023-02-09T20:47:31.325Z,24.80
2023-02-09T20:49:52.658Z,26.70
2023-02-09T20:52:14.238Z,26.50
2023-02-09T20:54:36.221Z,27.70
2023-02-09T20:56:58.823Z,28.37
2023-02-09T20:59:20.276Z,27.57
2023-02-09T21:01:41.818Z,27.63
2023-02-09T21:04:03.298Z,28.43
2023-02-09T21:06:24.524Z,28.27
2023-02-09T21:08:45.829Z,26.10
2023-02-09T21:11:07.301Z,25.00
2023-02-09T21:13:30.164Z,25.83
2023-02-09T21:15:51.677Z,25.20
2023-02-09T21:18:12.926Z,26.70
2023-02-09T21:20:34.875Z,29.10
2023-02-09T21:22:56.147Z,28.27
2023-02-09T21:25:18.115Z,29.23
2023-02-09T21:27:39.106Z,28.90
2023-02-09T21:30:01.611Z,27.90
2023-02-09T21:32:22.925Z,27.63
2023-02-09T21:34:44.187Z,28.40
2023-02-09T21:37:07.921Z,31.03
2023-02-09T21:39:29.409Z,32.33
2023-02-09T21:42:08.257Z,31.40
2023-02-09T21:44:29.489Z,29.20
2023-02-09T21:46:53.805Z,26.83
2023-02-09T21:49:14.863Z,28.97
2023-02-09T21:51:36.217Z,27.27
2023-02-09T21:53:57.653Z,28.17
2023-02-09T21:56:20.187Z,29.30
2023-02-09T21:58:41.186Z,30.00
2023-02-09T22:01:03.189Z,30.10
2023-02-09T22:03:25.846Z,29.93
2023-02-09T22:05:47.250Z,28.50
2023-02-09T22:08:08.723Z,30.80
2023-02-09T22:10:30.059Z,28.23
2023-02-09T22:12:51.930Z,30.23
2023-02-09T22:15:13.338Z,30.20
2023-02-09T22:17:36.990Z,29.77
2023-02-09T22:19:59.495Z,29.27
2023-02-09T22:22:20.745Z,29.17
2023-02-09T22:24:42.030Z,29.50
2023-02-09T22:27:03.089Z,27.83
2023-02-09T22:29:24.324Z,29.67
2023-02-09T22:31:45.776Z,29.10
2023-02-09T22:34:07.313Z,29.63
2023-02-09T22:36:29.601Z,31.50
2023-02-09T22:38:51.166Z,29.83
2023-02-09T22:41:21.500Z,29.57
2023-02-09T22:43:43.035Z,28.77
2023-02-09T22:46:04.316Z,29.47
2023-02-09T22:48:25.823Z,29.43
2023-02-09T22:50:46.734Z,28.30
2023-02-09T22:53:09.155Z,28.30
2023-02-09T22:55:30.397Z,27.13
2023-02-09T22:57:51.834Z,29.93
2023-02-09T23:00:14.115Z,27.37
2023-02-09T23:02:35.567Z,28.10
2023-02-09T23:04:56.828Z,29.97
2023-02-09T23:07:18.554Z,29.93
2023-02-09T23:09:41.273Z,31.00
2023-02-09T23:12:02.337Z,32.87
2023-02-09T23:14:23.627Z,31.30
2023-02-09T23:16:45.687Z,32.27
2023-02-09T23:19:07.989Z,30.13
2023-02-09T23:21:30.371Z,31.60
2023-02-09T23:23:51.562Z,31.97
2023-02-09T23:26:14.365Z,32.87
2023-02-09T23:28:36.054Z,33.53
2023-02-09T23:30:57.134Z,30.80
2023-02-09T23:33:18.292Z,30.67
2023-02-09T23:35:39.600Z,29.63
2023-02-09T23:38:00.832Z,29.60
2023-02-09T23:40:22.156Z,29.90
2023-02-09T23:42:44.735Z,31.13
2023-02-09T23:45:06.544Z,29.63
2023-02-09T23:47:27.690Z,30.33
2023-02-09T23:49:49.634Z,29.77
2023-02-09T23:52:10.786Z,29.37
2023-02-09T23:54:31.758Z,30.90
2023-02-09T23:56:53.629Z,29.83
2023-02-09T23:59:16.215Z,30.30
